Beale Air Force Base Marysville US
ICAO: KBAB
IATA: BAB
Category: Large
Scheduled Services: No

Elevation: 113 ft
TransAlt. 18000 ft.

Airport Communications:
940TH COMD POST:25.602
NORCAL APP:125.4
ATIS:27.35
NORCAL DEP:125.4
GND:121.6
SUPERVISOR OF FLYING:138.5
PMSV METRO:23.98
WING COMD POST:32.1
PTD:140.875
TWR:119.4

KBAB Zoom In..

Runways:

(A) RW 15 length 12000 ft width 300 ft
ILS 109.50 / hdg 145

(B) RW 33 length 12000 ft width 300 ft
ILS 109.50 / hdg 325

Location; KBAB
Day. 31 / Time. 11.58 Zulu
* Altimeter: 29.92
* Temperature: 15° c. 59°f.
* Wind from: 000° Speed 00 kn.
Dewpoint: 12° c.
Visibility: 10 Statute Miles.
Clouds: Scattered 7000 ft.

KBAB 311158Z AUTO 00000KT 10SM SCT070 15/12 A2992 RMK AO2 SLP134 70002 T01540121 10171 20146 50002 $


Wind - Calm.

 
 
jpsmedia worldairports.se 2020   terms of use